الصفحة الرئيسية
METAR-TAF:

METAR-TAF

مطار :

الجزائر, الجزائر

مطار هواري بومدين الدولي

دائرة عرض: 36-43N, خط طول: 003-15E, ارتفاع: 25 متر

مراقبة الطقس الحالي

تاريخ ووقت الإصدار 35 دقيقة قبل الساعة 02:30UTC
ريح 1 عقدة من الجنوب الغربي
درجة الحرارة 12°درجة مئوية
الرطوبة 94%
ضغط 1016 hPa
الرؤية: 0500 متر
غيوم قليلة على ارتفاع 2000 قدم
ضباب

METAR: DAAG 220230Z 22001KT 0500 R09/P2000U FG FEW020 12/11 Q1016

زمن: 04:05 (03:05 UTC)

توقعات

تاريخ ووقت الإصدار 4ساعات و 5 دقيقة قبل الساعة 23:00UTC
التوقعات صالحة من22 الساعة 00 UTC إلى 22 الساعة 24 UTC
ريح 2 عقدةمن اتجاهات متغيرة
الرؤية: 6000 متر
غيوم قليلة على ارتفاع 2000 قدم
غيوم متفرقة على ارتفاع 20000 قدم
نظرية الاحتمالات 40%
من 22 الساعة 00 UTC إلى 22 الساعة 08 UTC
الرؤية: 3000 متر
غشاء
نظرية الاحتمالات 30% :
مؤقت
من 22 الساعة 00 UTC إلى 22 الساعة 06 UTC
الرؤية: 0600 متر
غيوم مفككة على ارتفاع 800 قدم
ضباب
أصبح
من 22 الساعة 08 UTC إلى 22 الساعة 12 UTC
ريح 12 عقدة من الشمال الشرقي

TAF: DAAG 212300Z 2200/2224 VRB02KT 6000 FEW020 SCT200 PROB40 2200/2208 3000 BR PROB30 TEMPO 2200/2206 0600 FG BKN008 BECMG 2208/2212 04012KT

أرصاد الطقس والتوقعات من أكثر من 4000 مطار (تقارير الطقس للمطار METAR والتنبؤ بالطقس بالمطارTAF).

المحطات المتاحة هي النقط الصفراء والحمراء على الخريطة.

حرك المؤشر فوق النقطة لمعرفة اسم المحطة.

ثم انقر لمعرفة أرصاد وتوقعات الطقس.

لتغيير الخارطة: اضغط على الأزرار الخضراء مع رمز الصليب الأسود للتكبير. على الزر الأخضر مع شرطة للتصغير، أو على الأسهم الخضراء للخرائط المجاورة.


METAR-TAF: